Time;durP1;ratioP1;P1;durP2;ratioP2;P2;SDS_P1;SDS_P2;PMS_P1;PMS_P2;Temp;Humidity;BMP_temperature;BMP_pressure;BME280_temperature;BME280_humidity;BME280_pressure;Samples;Min_cycle;Max_cycle;Signal;HPM_P1;HPM_P2
2023/09/05 00:01:09;;;;;;;0.10;0.10;;;;;;;14.45;100.00;101831.28;5112893;28;20514;-49
2023/09/05 00:03:35;;;;;;;0.10;0.10;;;;;;;14.39;100.00;101831.97;5112558;28;20156;-47
2023/09/05 00:06:04;;;;;;;0.08;0.08;;;;;;;14.19;100.00;101838.25;5113615;28;20023;-49
2023/09/05 00:08:30;;;;;;;0.00;0.00;;;;;;;14.13;100.00;101841.56;5112335;28;20466;-49
2023/09/05 00:10:59;;;;;;;0.10;0.10;;;;;;;13.96;100.00;101838.44;5113765;28;20028;-49
2023/09/05 00:13:26;;;;;;;0.10;0.10;;;;;;;13.95;100.00;101834.97;5113301;28;20028;-47
2023/09/05 00:15:52;;;;;;;0.10;0.10;;;;;;;13.86;100.00;101829.50;5112771;28;20123;-48
2023/09/05 00:18:17;;;;;;;0.10;0.10;;;;;;;13.88;100.00;101829.53;5113334;28;20434;-48
2023/09/05 00:20:42;;;;;;;0.10;0.10;;;;;;;13.90;100.00;101815.78;5113225;28;20115;-48
2023/09/05 00:23:08;;;;;;;0.10;0.10;;;;;;;13.76;100.00;101817.97;5112745;28;20032;-47
2023/09/05 00:25:34;;;;;;;0.10;0.10;;;;;;;13.85;100.00;101819.09;5113120;28;20061;-51
2023/09/05 00:28:00;;;;;;;0.10;0.10;;;;;;;13.91;100.00;101824.47;5113551;28;20016;-51
2023/09/05 00:30:26;;;;;;;0.10;0.10;;;;;;;13.81;100.00;101826.78;5112137;28;20466;-48
2023/09/05 00:32:51;;;;;;;0.10;0.10;;;;;;;13.89;100.00;101833.88;5113342;28;20020;-48
2023/09/05 00:35:17;;;;;;;0.10;0.10;;;;;;;13.72;100.00;101830.75;5113030;28;20023;-47
2023/09/05 00:37:42;;;;;;;0.10;0.10;;;;;;;13.56;100.00;101824.22;5112452;28;20031;-47
2023/09/05 00:40:08;;;;;;;0.10;0.10;;;;;;;13.59;100.00;101825.16;5113237;28;20023;-48
2023/09/05 00:42:34;;;;;;;0.10;0.10;;;;;;;13.50;100.00;101835.22;5113054;28;20027;-47
2023/09/05 00:44:59;;;;;;;0.10;0.10;;;;;;;13.55;100.00;101828.50;5112159;28;20051;-49
2023/09/05 00:47:27;;;;;;;0.10;0.10;;;;;;;13.60;100.00;101834.72;5112714;28;20111;-47
2023/09/05 00:49:52;;;;;;;0.10;0.10;;;;;;;13.66;100.00;101836.63;5112924;28;20027;-47
2023/09/05 00:52:19;;;;;;;0.10;0.10;;;;;;;13.42;100.00;101842.75;5111720;28;20031;-47
2023/09/05 00:54:45;;;;;;;0.10;0.10;;;;;;;13.37;100.00;101849.47;5112788;28;20451;-49
2023/09/05 00:57:15;;;;;;;0.10;0.10;;;;;;;13.56;100.00;101837.16;5113155;28;20098;-47
2023/09/05 00:59:42;;;;;;;0.10;0.10;;;;;;;13.37;100.00;101844.28;5112236;28;20038;-48
2023/09/05 01:02:07;;;;;;;0.10;0.10;;;;;;;13.39;100.00;101837.47;5113040;28;20038;-47
2023/09/05 01:04:33;;;;;;;0.10;0.10;;;;;;;13.40;100.00;101827.97;5112242;28;20103;-48
2023/09/05 01:07:23;;;;;;;0.10;0.10;;;;;;;13.39;100.00;101833.97;5112431;28;20024;-48
2023/09/05 01:09:54;;;;;;;0.10;0.10;;;;;;;13.34;100.00;101831.22;5112951;28;20028;-49
2023/09/05 01:12:20;;;;;;;0.10;0.10;;;;;;;13.29;100.00;101830.19;5113921;28;20429;-47
2023/09/05 01:14:45;;;;;;;0.10;0.10;;;;;;;13.28;100.00;101834.47;5116537;28;20030;-47
2023/09/05 01:17:11;;;;;;;0.10;0.10;;;;;;;13.31;100.00;101828.50;5116501;28;20031;-50
2023/09/05 01:19:39;;;;;;;0.20;0.20;;;;;;;13.26;100.00;101828.38;5115489;28;20031;-52
2023/09/05 01:22:21;;;;;;;0.10;0.10;;;;;;;13.26;100.00;101830.97;5116698;28;20028;-46
2023/09/05 01:24:49;;;;;;;0.10;0.10;;;;;;;13.14;100.00;101828.84;5116567;28;20478;-49
2023/09/05 01:27:17;;;;;;;0.10;0.10;;;;;;;13.10;100.00;101824.34;5115246;28;20051;-48
2023/09/05 01:29:44;;;;;;;0.10;0.10;;;;;;;13.08;100.00;101823.44;5116490;28;20028;-50
2023/09/05 01:32:10;;;;;;;0.10;0.10;;;;;;;13.15;100.00;101830.56;5116414;28;20016;-49
2023/09/05 01:34:35;;;;;;;0.10;0.10;;;;;;;13.07;100.00;101833.75;5115246;28;20077;-47
2023/09/05 01:37:01;;;;;;;0.10;0.10;;;;;;;13.18;100.00;101833.28;5116207;28;20027;-47
2023/09/05 01:39:26;;;;;;;0.10;0.10;;;;;;;13.27;100.00;101835.31;5115886;28;20031;-49
2023/09/05 01:41:52;;;;;;;0.10;0.10;;;;;;;13.30;100.00;101834.53;5115333;28;20028;-48
2023/09/05 01:44:18;;;;;;;0.10;0.10;;;;;;;13.28;100.00;101828.41;5115879;28;20016;-48
2023/09/05 01:46:43;;;;;;;0.10;0.10;;;;;;;13.31;100.00;101831.09;5116126;28;20042;-47
2023/09/05 01:49:09;;;;;;;0.10;0.10;;;;;;;13.30;100.00;101837.13;5115676;28;20407;-47
2023/09/05 01:51:34;;;;;;;0.10;0.10;;;;;;;13.24;100.00;101831.75;5115486;28;20024;-49
2023/09/05 01:53:59;;;;;;;0.10;0.10;;;;;;;13.27;100.00;101831.81;5115153;28;20108;-47
2023/09/05 01:56:25;;;;;;;0.10;0.10;;;;;;;13.32;100.00;101838.03;5115344;28;20046;-49
2023/09/05 01:58:50;;;;;;;0.10;0.10;;;;;;;13.35;100.00;101838.16;5115804;28;20019;-47
2023/09/05 02:01:15;;;;;;;0.10;0.10;;;;;;;13.32;100.00;101835.47;5114926;28;20031;-48
2023/09/05 02:03:41;;;;;;;0.15;0.15;;;;;;;13.39;100.00;101834.88;5115567;28;20031;-47
2023/09/05 02:06:06;;;;;;;0.10;0.10;;;;;;;13.35;100.00;101833.00;5115633;28;20024;-51
2023/09/05 02:08:36;;;;;;;0.10;0.10;;;;;;;13.33;100.00;101838.09;5114646;28;20106;-47
2023/09/05 02:11:01;;;;;;;0.10;0.10;;;;;;;13.28;100.00;101831.00;5115581;28;20046;-47
2023/09/05 02:13:28;;;;;;;0.13;0.13;;;;;;;13.38;100.00;101835.72;5115222;28;20383;-47
2023/09/05 02:15:54;;;;;;;0.10;0.10;;;;;;;13.22;100.00;101828.19;5114876;27;20023;-52
2023/09/05 02:18:19;;;;;;;0.10;0.10;;;;;;;13.07;100.00;101829.44;5115256;28;20715;-51
2023/09/05 02:20:44;;;;;;;0.10;0.10;;;;;;;13.00;100.00;101830.94;5115517;28;20028;-48
2023/09/05 02:23:09;;;;;;;0.10;0.10;;;;;;;12.97;100.00;101837.69;5113773;28;20024;-48
2023/09/05 02:25:35;;;;;;;0.10;0.10;;;;;;;12.95;100.00;101823.81;5114822;28;20039;-49
2023/09/05 02:28:00;;;;;;;0.10;0.10;;;;;;;12.84;100.00;101820.84;5115075;28;20028;-46
2023/09/05 02:30:26;;;;;;;0.10;0.10;;;;;;;13.01;100.00;101821.44;5114171;28;20039;-48
2023/09/05 02:32:52;;;;;;;0.10;0.10;;;;;;;13.03;100.00;101824.97;5115362;28;20076;-49
2023/09/05 02:35:20;;;;;;;0.10;0.10;;;;;;;13.05;100.00;101819.84;5114711;28;20027;-49
2023/09/05 02:37:49;;;;;;;0.10;0.10;;;;;;;13.02;100.00;101825.81;5114232;28;20423;-49
2023/09/05 02:40:14;;;;;;;0.10;0.10;;;;;;;12.98;100.00;101834.28;5114737;28;20073;-47
2023/09/05 02:42:39;;;;;;;0.10;0.10;;;;;;;13.07;100.00;101826.84;5114870;28;20023;-51
2023/09/05 02:45:05;;;;;;;0.20;0.20;;;;;;;13.09;100.00;101829.47;5114026;28;20042;-48
2023/09/05 02:47:30;;;;;;;0.10;0.10;;;;;;;13.14;100.00;101821.06;5114613;28;20043;-47
2023/09/05 02:49:56;;;;;;;0.10;0.10;;;;;;;13.06;100.00;101816.44;5114832;27;20405;-48
2023/09/05 02:52:21;;;;;;;0.10;0.10;;;;;;;13.10;100.00;101811.41;5113589;28;20455;-49
2023/09/05 02:54:46;;;;;;;0.10;0.10;;;;;;;13.09;100.00;101812.25;5114498;28;20027;-51
2023/09/05 02:57:12;;;;;;;0.10;0.10;;;;;;;13.12;100.00;101806.31;5113386;28;20032;-48
2023/09/05 02:59:37;;;;;;;0.10;0.10;;;;;;;13.14;100.00;101810.72;5114528;28;20032;-47
2023/09/05 03:02:02;;;;;;;0.10;0.10;;;;;;;13.24;100.00;101811.03;5114702;28;20024;-47
2023/09/05 03:04:32;;;;;;;0.10;0.10;;;;;;;13.22;100.00;101810.09;5113563;28;20058;-49
2023/09/05 03:06:58;;;;;;;0.20;0.20;;;;;;;13.24;100.00;101805.84;5114525;28;20050;-46
2023/09/05 03:09:23;;;;;;;0.10;0.10;;;;;;;13.22;100.00;101803.22;5114190;28;20047;-48
2023/09/05 03:11:49;;;;;;;0.10;0.10;;;;;;;13.33;100.00;101800.97;5113522;28;20051;-49
2023/09/05 03:14:14;;;;;;;0.10;0.10;;;;;;;13.29;100.00;101801.72;5113829;28;20132;-50
2023/09/05 03:16:40;;;;;;;0.10;0.10;;;;;;;13.27;100.00;101800.75;5114372;28;20040;-51
2023/09/05 03:19:05;;;;;;;0.17;0.17;;;;;;;13.27;100.00;101795.59;5113522;28;20026;-51
2023/09/05 03:21:30;;;;;;;0.10;0.10;;;;;;;13.27;100.00;101798.19;5113881;28;20538;-51
2023/09/05 03:23:56;;;;;;;0.10;0.10;;;;;;;13.26;100.00;101799.00;5114489;28;20023;-50
2023/09/05 03:26:21;;;;;;;0.10;0.10;;;;;;;13.16;100.00;101803.88;5112970;28;20034;-51
2023/09/05 03:28:47;;;;;;;0.10;0.10;;;;;;;13.21;100.00;101800.53;5114242;28;20448;-51
2023/09/05 03:31:13;;;;;;;0.10;0.10;;;;;;;13.13;100.00;101803.78;5113680;28;20023;-50
2023/09/05 03:33:38;;;;;;;0.10;0.10;;;;;;;13.17;100.00;101797.00;5113183;28;20059;-52
2023/09/05 03:36:05;;;;;;;0.10;0.10;;;;;;;13.23;100.00;101794.59;5113073;28;20020;-51
2023/09/05 03:38:31;;;;;;;0.10;0.10;;;;;;;13.14;100.00;101792.59;5113658;28;20062;-50
2023/09/05 03:40:58;;;;;;;0.10;0.10;;;;;;;13.13;100.00;101795.09;5113032;28;20027;-49
2023/09/05 03:43:23;;;;;;;0.10;0.10;;;;;;;13.03;100.00;101801.69;5113659;28;20482;-49
2023/09/05 03:45:49;;;;;;;0.10;0.10;;;;;;;12.99;100.00;101797.25;5113764;28;20020;-52
2023/09/05 03:48:15;;;;;;;0.10;0.10;;;;;;;12.98;100.00;101804.09;5112851;28;20034;-51
2023/09/05 03:50:40;;;;;;;0.10;0.10;;;;;;;12.87;100.00;101800.25;5113812;28;20026;-49
2023/09/05 03:53:06;;;;;;;0.10;0.10;;;;;;;12.89;100.00;101802.94;5113670;28;20051;-49
2023/09/05 03:55:34;;;;;;;0.10;0.10;;;;;;;12.88;100.00;101801.16;5112334;28;20055;-51
2023/09/05 03:58:03;;;;;;;0.10;0.10;;;;;;;12.90;100.00;101794.31;5113472;28;20470;-49
2023/09/05 04:00:29;;;;;;;0.10;0.10;;;;;;;12.84;100.00;101795.84;5112635;28;20020;-49
2023/09/05 04:02:55;;;;;;;0.10;0.10;;;;;;;12.79;100.00;101797.41;5113577;28;20091;-48
2023/09/05 04:05:21;;;;;;;0.10;0.10;;;;;;;12.72;100.00;101792.84;5113129;28;20495;-50
2023/09/05 04:07:47;;;;;;;0.10;0.10;;;;;;;12.76;100.00;101789.53;5112711;28;20035;-50
2023/09/05 04:10:12;;;;;;;0.10;0.10;;;;;;;12.78;100.00;101790.50;5113276;28;20439;-47
2023/09/05 04:12:38;;;;;;;0.10;0.10;;;;;;;12.71;100.00;101790.22;5113650;28;20379;-47
2023/09/05 04:15:04;;;;;;;0.10;0.10;;;;;;;12.58;100.00;101781.13;5112701;28;20404;-51
2023/09/05 04:17:29;;;;;;;0.10;0.10;;;;;;;12.70;100.00;101783.28;5112931;28;20032;-49
2023/09/05 04:19:55;;;;;;;0.10;0.10;;;;;;;12.69;100.00;101774.63;5113430;28;20081;-48
2023/09/05 04:22:23;;;;;;;0.10;0.10;;;;;;;12.68;100.00;101767.72;5112172;28;20463;-49
2023/09/05 04:24:52;;;;;;;0.10;0.10;;;;;;;12.71;100.00;101772.97;5113239;28;20106;-49
2023/09/05 04:27:18;;;;;;;0.10;0.10;;;;;;;12.83;100.00;101772.53;5113195;28;20056;-50
2023/09/05 04:29:43;;;;;;;0.20;0.20;;;;;;;12.76;100.00;101770.56;5112563;28;20051;-50
2023/09/05 04:32:09;;;;;;;0.13;0.13;;;;;;;12.70;100.00;101771.22;5113303;28;20065;-47
2023/09/05 04:34:34;;;;;;;0.17;0.17;;;;;;;12.59;100.00;101772.53;5112778;28;20027;-51
2023/09/05 04:37:01;;;;;;;0.10;0.10;;;;;;;12.81;100.00;101769.88;5112280;28;20061;-48
2023/09/05 04:39:26;;;;;;;0.10;0.10;;;;;;;13.07;100.00;101772.50;5112863;28;20020;-50
2023/09/05 04:41:54;;;;;;;0.10;0.10;;;;;;;12.92;100.00;101777.16;5113172;28;20027;-47
2023/09/05 04:44:19;;;;;;;0.10;0.10;;;;;;;13.08;100.00;101778.53;5111950;28;20378;-51
2023/09/05 04:46:45;;;;;;;0.10;0.10;;;;;;;13.08;100.00;101768.19;5114263;28;20027;-50
2023/09/05 04:49:11;;;;;;;0.10;0.10;;;;;;;13.09;100.00;101768.28;5117120;28;20023;-50
2023/09/05 04:51:37;;;;;;;0.10;0.10;;;;;;;12.97;100.00;101766.13;5116354;27;20020;-49
2023/09/05 04:54:02;;;;;;;0.10;0.10;;;;;;;13.15;100.00;101770.16;5116868;28;20141;-50
2023/09/05 04:56:28;;;;;;;0.10;0.10;;;;;;;13.05;100.00;101771.56;5116533;28;20092;-48
2023/09/05 04:58:53;;;;;;;0.10;0.10;;;;;;;13.05;100.00;101768.97;5116317;28;20032;-47
2023/09/05 05:01:18;;;;;;;0.10;0.10;;;;;;;13.18;100.00;101768.56;5116630;28;20039;-47
2023/09/05 05:03:44;;;;;;;0.10;0.10;;;;;;;13.21;100.00;101769.47;5115941;28;20065;-51
2023/09/05 05:06:09;;;;;;;0.20;0.20;;;;;;;13.11;100.00;101768.31;5116804;28;20031;-49
2023/09/05 05:08:34;;;;;;;0.10;0.10;;;;;;;13.17;100.00;101761.63;5116312;28;20024;-47
2023/09/05 05:11:04;;;;;;;0.10;0.10;;;;;;;13.29;100.00;101768.06;5116011;28;20020;-46
2023/09/05 05:13:29;;;;;;;0.10;0.10;;;;;;;13.23;100.00;101768.72;5116566;28;20035;-47
2023/09/05 05:15:55;;;;;;;0.10;0.10;;;;;;;13.36;100.00;101769.13;5116826;28;20016;-51
2023/09/05 05:18:20;;;;;;;0.10;0.10;;;;;;;13.49;100.00;101773.91;5115525;28;20035;-46
2023/09/05 05:20:46;;;;;;;0.10;0.10;;;;;;;13.35;100.00;101768.25;5116530;28;20106;-47
2023/09/05 05:23:11;;;;;;;0.10;0.10;;;;;;;13.40;100.00;101782.28;5116130;28;20101;-48
2023/09/05 05:25:37;;;;;;;0.10;0.10;;;;;;;13.53;100.00;101773.19;5115485;28;20023;-51
2023/09/05 05:28:04;;;;;;;0.10;0.10;;;;;;;13.47;100.00;101785.94;5116340;28;20038;-52
2023/09/05 05:30:34;;;;;;;0.10;0.10;;;;;;;13.44;100.00;101781.53;5116115;28;20016;-47
2023/09/05 05:32:59;;;;;;;0.10;0.10;;;;;;;13.44;100.00;101778.94;5115565;28;20034;-50
2023/09/05 05:35:24;;;;;;;0.10;0.10;;;;;;;13.47;100.00;101784.22;5115883;28;20386;-51
2023/09/05 05:37:49;;;;;;;0.10;0.10;;;;;;;13.56;100.00;101788.81;5116108;28;20028;-49
2023/09/05 05:40:16;;;;;;;0.10;0.10;;;;;;;13.64;100.00;101789.94;5115135;28;20023;-47
2023/09/05 05:42:41;;;;;;;0.15;0.15;;;;;;;13.65;100.00;101794.28;5116230;28;20043;-48
2023/09/05 05:45:07;;;;;;;0.20;0.20;;;;;;;13.68;100.00;101793.50;5116189;28;20016;-51
2023/09/05 05:47:32;;;;;;;0.10;0.10;;;;;;;13.73;100.00;101797.13;5114755;28;20478;-47
2023/09/05 05:49:58;;;;;;;0.10;0.10;;;;;;;13.92;100.00;101789.94;5116124;28;20114;-49
2023/09/05 05:52:23;;;;;;;0.10;0.10;;;;;;;14.09;100.00;101788.72;5115454;28;20019;-51
2023/09/05 05:54:49;;;;;;;0.20;0.20;;;;;;;14.24;100.00;101782.25;5114803;28;20111;-51
2023/09/05 05:57:14;;;;;;;0.10;0.10;;;;;;;14.25;100.00;101787.47;5115623;28;20034;-47
2023/09/05 05:59:40;;;;;;;0.10;0.10;;;;;;;14.37;100.00;101797.34;5114857;28;20128;-50
2023/09/05 06:02:07;;;;;;;0.10;0.10;;;;;;;14.41;100.00;101787.91;5115102;28;20073;-48
2023/09/05 06:04:32;;;;;;;0.10;0.10;;;;;;;14.48;100.00;101793.31;5115402;27;20028;-48
2023/09/05 06:06:58;;;;;;;0.10;0.10;;;;;;;14.51;100.00;101799.44;5115411;28;20108;-51
2023/09/05 06:09:23;;;;;;;0.10;0.10;;;;;;;14.53;100.00;101802.97;5114687;28;20043;-47
2023/09/05 06:11:48;;;;;;;0.10;0.10;;;;;;;14.62;100.00;101795.44;5115578;28;20455;-48
2023/09/05 06:14:14;;;;;;;0.10;0.10;;;;;;;14.61;100.00;101801.47;5114396;28;20020;-50
2023/09/05 06:16:40;;;;;;;0.10;0.10;;;;;;;14.79;100.00;101796.81;5115439;28;20043;-47
2023/09/05 06:19:07;;;;;;;0.10;0.10;;;;;;;14.91;100.00;101798.00;5115373;28;20030;-47
2023/09/05 06:21:32;;;;;;;0.10;0.10;;;;;;;14.92;100.00;101792.84;5114325;28;20024;-49
2023/09/05 06:23:58;;;;;;;0.10;0.10;;;;;;;15.02;100.00;101788.78;5115478;28;20375;-48
2023/09/05 06:26:24;;;;;;;0.10;0.10;;;;;;;15.04;100.00;101796.59;5114863;28;20371;-47
2023/09/05 06:28:49;;;;;;;0.10;0.10;;;;;;;15.24;100.00;101800.59;5114481;28;20024;-51
2023/09/05 06:31:14;;;;;;;0.10;0.10;;;;;;;15.34;100.00;101801.72;5114651;28;20019;-47
2023/09/05 06:33:39;;;;;;;0.10;0.10;;;;;;;15.46;100.00;101798.53;5115150;28;20039;-50
2023/09/05 06:36:06;;;;;;;0.10;0.10;;;;;;;15.52;100.00;101790.00;5114164;28;20034;-51
2023/09/05 06:38:31;;;;;;;0.10;0.10;;;;;;;15.57;100.00;101799.69;5114630;28;20039;-48
2023/09/05 06:40:56;;;;;;;0.10;0.10;;;;;;;15.64;100.00;101787.72;5114934;28;20024;-47
2023/09/05 06:43:21;;;;;;;0.10;0.10;;;;;;;15.82;100.00;101792.50;5113849;28;20028;-48
2023/09/05 06:45:47;;;;;;;0.10;0.10;;;;;;;15.88;100.00;101799.56;5114935;28;20035;-51
2023/09/05 06:48:12;;;;;;;0.10;0.10;;;;;;;15.87;100.00;101788.28;5114539;28;20024;-47
2023/09/05 06:50:38;;;;;;;0.10;0.10;;;;;;;16.06;100.00;101801.69;5113904;28;20536;-51
2023/09/05 06:53:03;;;;;;;0.10;0.10;;;;;;;16.06;100.00;101793.88;5115013;28;20455;-47
2023/09/05 06:55:28;;;;;;;0.10;0.10;;;;;;;16.09;100.00;101800.03;5114519;28;20040;-47
2023/09/05 06:57:54;;;;;;;0.10;0.10;;;;;;;16.36;100.00;101798.00;5113909;27;20040;-49
2023/09/05 07:00:23;;;;;;;0.10;0.10;;;;;;;16.41;100.00;101788.56;5114218;28;20028;-47
2023/09/05 07:02:49;;;;;;;0.10;0.10;;;;;;;16.62;100.00;101788.13;5114582;28;20478;-51
2023/09/05 07:05:15;;;;;;;0.10;0.10;;;;;;;16.60;100.00;101771.59;5113276;28;20028;-47
2023/09/05 07:07:40;;;;;;;0.10;0.10;;;;;;;16.83;100.00;101782.44;5114563;28;20027;-47
2023/09/05 07:10:06;;;;;;;0.10;0.10;;;;;;;17.14;100.00;101775.22;5114271;28;20111;-52
2023/09/05 07:12:31;;;;;;;0.10;0.10;;;;;;;17.22;100.00;101777.97;5113428;28;20034;-51
2023/09/05 07:14:56;;;;;;;0.10;0.10;;;;;;;17.42;100.00;101784.38;5114379;28;20471;-52
2023/09/05 07:17:22;;;;;;;0.10;0.10;;;;;;;17.57;100.00;101780.25;5113237;28;20470;-49
2023/09/05 07:19:47;;;;;;;0.00;0.00;;;;;;;17.75;100.00;101782.25;5114236;28;20054;-51
2023/09/05 07:22:13;;;;;;;0.10;0.10;;;;;;;17.76;100.00;101774.47;5113826;28;20475;-52
2023/09/05 07:24:38;;;;;;;0.10;0.10;;;;;;;17.92;100.00;101777.28;5113398;28;20035;-47
2023/09/05 07:27:04;;;;;;;0.10;0.10;;;;;;;17.95;100.00;101774.78;5113983;28;20084;-48
2023/09/05 07:29:31;;;;;;;0.10;0.10;;;;;;;18.10;100.00;101766.25;5113779;28;20406;-47
2023/09/05 07:31:56;;;;;;;0.10;0.10;;;;;;;18.20;100.00;101767.28;5113146;28;20360;-47
2023/09/05 07:34:22;;;;;;;0.00;0.00;;;;;;;18.32;100.00;101774.38;5113429;28;20474;-52
2023/09/05 07:36:47;;;;;;;0.00;0.00;;;;;;;18.50;100.00;101773.72;5114176;28;20378;-52
2023/09/05 07:39:13;;;;;;;0.10;0.10;;;;;;;18.59;96.41;101769.50;5113247;28;20022;-47
2023/09/05 07:41:38;;;;;;;0.10;0.10;;;;;;;18.75;94.87;101769.66;5114055;28;20660;-47
2023/09/05 07:44:04;;;;;;;0.10;0.10;;;;;;;18.91;94.96;101763.75;5113858;27;20027;-48
2023/09/05 07:46:29;;;;;;;0.00;0.00;;;;;;;19.08;93.39;101763.03;5112508;28;20035;-50
2023/09/05 07:48:55;;;;;;;0.00;0.00;;;;;;;19.10;97.40;101763.06;5113529;28;20028;-48
2023/09/05 07:51:23;;;;;;;0.00;0.00;;;;;;;19.36;95.09;101764.13;5113290;28;20102;-50
2023/09/05 07:54:01;;;;;;;0.08;0.08;;;;;;;19.52;95.95;101774.69;5112528;28;20387;-48
2023/09/05 07:56:29;;;;;;;0.00;0.00;;;;;;;19.60;92.67;101764.28;5113370;28;20055;-48
2023/09/05 07:58:54;;;;;;;;;;;;;;;19.66;95.85;101770.44;5114108;28;20031;-48
2023/09/05 08:01:19;;;;;;;0.00;0.00;;;;;;;19.86;89.04;101769.75;5112434;28;19912;-47
2023/09/05 08:03:47;;;;;;;0.10;0.10;;;;;;;20.05;89.88;101779.44;5113513;28;20027;-48
2023/09/05 08:06:12;;;;;;;0.10;0.10;;;;;;;20.13;85.92;101781.19;5113214;28;20142;-48
2023/09/05 08:08:38;;;;;;;0.08;0.08;;;;;;;20.16;89.00;101778.63;5112530;28;20098;-48
2023/09/05 08:11:03;;;;;;;0.00;0.00;;;;;;;20.34;86.12;101772.59;5113545;28;20462;-47
2023/09/05 08:13:28;;;;;;;0.10;0.10;;;;;;;20.54;84.26;101783.09;5113096;28;20038;-47
2023/09/05 08:15:54;;;;;;;0.00;0.00;;;;;;;20.54;86.84;101780.47;5112536;28;20031;-48
2023/09/05 08:18:19;;;;;;;0.00;0.00;;;;;;;20.71;88.63;101789.31;5112941;28;20060;-47
2023/09/05 08:20:44;;;;;;;0.00;0.00;;;;;;;20.97;85.53;101783.25;5112541;28;20030;-48
2023/09/05 08:23:10;;;;;;;0.00;0.00;;;;;;;21.00;82.59;101788.47;5113068;28;20420;-49
2023/09/05 08:25:35;;;;;;;0.00;0.00;;;;;;;21.08;84.00;101785.00;5112931;28;20028;-47
2023/09/05 08:28:01;;;;;;;0.00;0.00;;;;;;;21.26;81.20;101785.00;5112427;28;20038;-48
2023/09/05 08:30:28;;;;;;;0.00;0.00;;;;;;;21.40;78.48;101786.75;5112872;28;20070;-48
2023/09/05 08:32:57;;;;;;;0.00;0.00;;;;;;;21.52;75.79;101786.75;5113374;28;20048;-51
2023/09/05 08:35:22;;;;;;;0.00;0.00;;;;;;;21.67;76.17;101781.50;5112328;28;20023;-50
2023/09/05 08:37:48;;;;;;;0.00;0.00;;;;;;;21.77;74.98;101786.72;5112976;28;20394;-49
2023/09/05 08:40:15;;;;;;;0.00;0.00;;;;;;;21.90;74.24;101772.72;5112892;28;20466;-47
2023/09/05 08:42:40;;;;;;;0.00;0.00;;;;;;;22.06;76.22;101770.06;5112308;28;20028;-48
2023/09/05 08:45:11;;;;;;;0.00;0.00;;;;;;;22.15;72.96;101767.38;5112957;28;20019;-48
2023/09/05 08:47:37;;;;;;;0.00;0.00;;;;;;;22.25;72.24;101774.34;5113346;28;20039;-47
2023/09/05 08:50:04;;;;;;;0.00;0.00;;;;;;;22.38;71.54;101774.34;5112378;28;20032;-47
2023/09/05 08:52:32;;;;;;;0.00;0.00;;;;;;;22.47;69.96;101779.53;5112878;28;20028;-50
2023/09/05 08:54:59;;;;;;;0.08;0.08;;;;;;;22.60;70.61;101786.47;5112899;28;20056;-48
2023/09/05 08:57:25;;;;;;;0.00;0.00;;;;;;;22.67;69.26;101787.28;5111327;28;20048;-48
2023/09/05 08:59:53;;;;;;;0.00;0.00;;;;;;;22.90;71.60;101788.91;5112949;28;20028;-48
2023/09/05 09:02:19;;;;;;;0.00;0.00;;;;;;;23.07;71.20;101786.16;5112732;28;20099;-47
2023/09/05 09:04:56;;;;;;;0.00;0.00;;;;;;;23.06;72.09;101785.28;5112294;28;20153;-47
2023/09/05 09:07:29;;;;;;;0.00;0.00;;;;;;;23.36;68.99;101788.59;5112706;28;20024;-48
2023/09/05 09:09:55;;;;;;;0.00;0.00;;;;;;;23.44;65.68;101785.88;5112098;28;20128;-48
2023/09/05 09:12:31;;;;;;;0.00;0.00;;;;;;;23.49;67.01;101784.94;5112466;28;20016;-48
2023/09/05 09:15:10;;;;;;;0.00;0.00;;;;;;;23.72;67.32;101785.59;5113069;28;20030;-50
2023/09/05 09:17:36;;;;;;;0.00;0.00;;;;;;;23.84;63.29;101780.22;5111682;28;20478;-48
2023/09/05 09:20:05;;;;;;;0.00;0.00;;;;;;;23.92;61.22;101794.19;5112774;28;20478;-47
2023/09/05 09:22:30;;;;;;;0.10;0.00;;;;;;;24.17;61.70;101783.41;5112479;28;20028;-48
2023/09/05 09:24:55;;;;;;;0.00;0.00;;;;;;;24.42;62.38;101797.09;5111803;28;20216;-51
2023/09/05 09:27:23;;;;;;;0.05;0.05;;;;;;;24.50;58.64;101791.75;5112457;28;20502;-49
2023/09/05 09:29:54;;;;;;;;;;;;;;;24.65;61.30;101796.81;5113278;28;20027;-47
2023/09/05 09:32:22;;;;;;;0.00;0.00;;;;;;;24.68;54.80;101805.59;5111539;28;19919;-50
2023/09/05 09:34:48;;;;;;;0.00;0.00;;;;;;;24.80;56.16;101803.66;5115288;28;20028;-49
2023/09/05 09:37:23;;;;;;;0.00;0.00;;;;;;;25.21;59.16;101814.44;5115990;28;20176;-49
2023/09/05 09:39:48;;;;;;;0.00;0.00;;;;;;;25.30;54.33;101806.38;5115338;28;20023;-48
2023/09/05 09:42:22;;;;;;;0.00;0.00;;;;;;;25.46;56.22;101806.13;5115779;28;20030;-51
2023/09/05 09:44:48;;;;;;;0.00;0.00;;;;;;;25.66;54.95;101804.94;5116146;28;20470;-49
2023/09/05 09:47:15;;;;;;;0.00;0.00;;;;;;;25.85;52.05;101808.97;5114923;28;20034;-48
2023/09/05 09:49:45;;;;;;;0.00;0.00;;;;;;;26.27;52.50;101811.69;5115930;28;20467;-49
2023/09/05 09:52:14;;;;;;;0.00;0.00;;;;;;;26.66;52.29;101802.03;5115427;28;20033;-48
2023/09/05 09:54:39;;;;;;;0.00;0.00;;;;;;;27.06;49.92;101806.41;5115853;28;20023;-53
2023/09/05 09:57:05;;;;;;;0.00;0.00;;;;;;;27.32;44.71;101804.91;5115990;28;20030;-49
2023/09/05 09:59:36;;;;;;;0.00;0.00;;;;;;;27.90;45.13;101803.38;5114621;28;20031;-49
2023/09/05 10:02:03;;;;;;;0.00;0.00;;;;;;;28.48;43.04;101807.91;5115780;28;20027;-49
2023/09/05 10:04:29;;;;;;;0.00;0.00;;;;;;;29.05;41.74;101798.19;5115467;28;20035;-48
2023/09/05 10:06:56;;;;;;;0.00;0.00;;;;;;;28.98;43.40;101796.66;5114757;28;20019;-49
2023/09/05 10:09:22;;;;;;;0.00;0.00;;;;;;;29.63;41.72;101809.53;5115358;28;20024;-48
2023/09/05 10:11:49;;;;;;;0.00;0.00;;;;;;;29.45;39.76;101806.63;5115676;28;20022;-48
2023/09/05 10:14:16;;;;;;;0.00;0.00;;;;;;;30.30;38.56;101803.53;5114510;28;20103;-52
2023/09/05 10:16:42;;;;;;;;;;;;;;;30.64;40.52;101790.75;5115926;28;20111;-50
2023/09/05 10:19:09;;;;;;;0.00;0.00;;;;;;;30.23;38.99;101791.44;5115617;28;19912;-49
2023/09/05 10:21:36;;;;;;;0.00;0.00;;;;;;;30.14;37.90;101789.97;5114595;27;20020;-49
2023/09/05 10:24:04;;;;;;;;;;;;;;;30.80;40.72;101797.19;5115870;28;20031;-49
2023/09/05 10:26:30;;;;;;;0.00;0.00;;;;;;;30.62;38.05;101795.28;5114881;28;19911;-53
2023/09/05 10:28:56;;;;;;;0.00;0.00;;;;;;;30.74;37.95;101796.56;5114880;28;20515;-52
2023/09/05 10:31:24;;;;;;;0.00;0.00;;;;;;;31.43;36.59;101799.03;5114934;28;20341;-49
2023/09/05 10:33:49;;;;;;;0.00;0.00;;;;;;;31.53;36.42;101794.19;5115444;28;20050;-49
2023/09/05 10:36:42;;;;;;;0.00;0.00;;;;;;;31.55;37.73;101786.97;5114199;27;20063;-48
2023/09/05 10:39:25;;;;;;;0.00;0.00;;;;;;;31.64;36.83;101785.72;5115229;28;20110;-53
2023/09/05 10:41:51;;;;;;;0.00;0.00;;;;;;;31.52;35.84;101781.78;5114341;28;20035;-53
2023/09/05 10:44:16;;;;;;;0.00;0.00;;;;;;;32.05;34.02;101785.66;5114030;28;20501;-53
2023/09/05 10:46:42;;;;;;;0.00;0.00;;;;;;;31.98;34.65;101781.53;5114895;28;20036;-53
2023/09/05 10:49:14;;;;;;;0.00;0.00;;;;;;;32.15;35.17;101792.28;5114095;28;20467;-49
2023/09/05 10:52:18;;;;;;;0.00;0.00;;;;;;;32.58;34.90;101783.22;5114755;28;20047;-53
2023/09/05 10:54:44;;;;;;;0.00;0.00;;;;;;;32.82;33.28;101776.69;5114743;28;20024;-53
2023/09/05 10:57:33;;;;;;;0.00;0.00;;;;;;;32.86;35.87;101781.88;5114175;28;20049;-52
2023/09/05 10:59:58;;;;;;;0.00;0.00;;;;;;;32.79;32.87;101778.63;5114787;28;20451;-53
2023/09/05 11:02:26;;;;;;;0.00;0.00;;;;;;;32.39;33.11;101768.06;5113895;28;20102;-52
2023/09/05 11:04:55;;;;;;;0.00;0.00;;;;;;;32.13;32.90;101771.97;5114432;28;20395;-51
2023/09/05 11:07:22;;;;;;;0.00;0.00;;;;;;;31.64;34.43;101775.06;5114229;28;20042;-53
2023/09/05 11:09:49;;;;;;;0.00;0.00;;;;;;;31.97;33.88;101778.00;5113860;28;20019;-53
2023/09/05 11:12:17;;;;;;;0.00;0.00;;;;;;;32.35;34.41;101774.50;5114039;27;20521;-49
2023/09/05 11:14:42;;;;;;;0.00;0.00;;;;;;;32.90;33.07;101780.75;5114455;28;20032;-47
2023/09/05 11:17:15;;;;;;;0.00;0.00;;;;;;;33.56;32.39;101776.53;5113381;28;20073;-51
2023/09/05 11:19:45;;;;;;;0.00;0.00;;;;;;;33.30;32.23;101774.28;5114493;28;20098;-51